Flight Track Log - Related Links

Times and Time Zones

All times are in EDT time to prevent confusion due to time zone crossing. See the FDX1735 flight status page for this flight to view local times or setup timezone preferences in your user account.

Time Position Orientation Groundspeed Altitude Reporting Facility
EDT Latitude Longitude Course Direction KTS MPH feet Rate Location/Type
Fri 03:39:34 AM 39.7000 -86.3000 226° Southwest 172 198 1,500  Level Indianapolis TRACON
Fri 03:40:40 AM 39.6500 -86.3667 219° Southwest 217 250 3,300 2,308 Climbing Indianapolis TRACON
Fri 03:41:57 AM 39.6158 -86.4747 248° West 257 296 7,000 2,826 Climbing Indianapolis Center
Fri 03:42:58 AM 39.5978 -86.5750 257° West 275 316 9,800 2,281 Climbing Indianapolis Center
Fri 03:43:58 AM 39.5808 -86.6861 259° West 299 344 11,600 1,850 Climbing Indianapolis Center
Fri 03:44:58 AM 39.5600 -86.8144 258° West 336 387 13,500 2,150 Climbing Indianapolis Center
Fri 03:45:58 AM 39.5378 -86.9500 258° West 364 419 15,900 2,231 Climbing Indianapolis Center
Fri 03:46:59 AM 39.5153 -87.0903 258° West 384 442 18,000 1,923 Climbing Indianapolis Center
Fri 03:48:00 AM 39.4417 -87.2191 231° Southwest  Level Estimated
Fri 03:48:59 AM 39.4172 -87.3500 231° Southwest 415 478 21,700  Level Indianapolis Center
Fri 03:49:59 AM 39.3472 -87.4725 234° Southwest 417 480 23,400 1,691 Climbing Indianapolis Center
Fri 03:50:49 AM 39.2818 -87.5829 233° Southwest 436 502 24,800 1,574 Climbing FlightAware ADS-B
Fri 03:51:00 AM 39.2747 -87.5964 233° Southwest 427 491 25,000 1,183 Climbing Indianapolis Center
Fri 03:52:00 AM 39.2006 -87.7214 233° Southwest 431 496 26,200 1,100 Climbing Indianapolis Center
Fri 03:53:00 AM 39.1244 -87.8525 233° Southwest 441 507 27,200 1,100 Climbing Indianapolis Center
Fri 03:54:00 AM 39.0456 -87.9875 233° Southwest 458 527 28,400 1,033 Climbing Indianapolis Center
Fri 03:55:02 AM 38.9619 -88.1264 232° Southwest 472 543 29,300 992 Climbing Kansas City Center
Fri 03:56:01 AM 38.8786 -88.2658 233° Southwest 485 558 30,400 1,140 Climbing Kansas City Center
Fri 03:57:03 AM 38.7958 -88.4047 233° Southwest 487 560 31,600 1,200 Climbing Kansas City Center
Fri 03:58:01 AM 38.7111 -88.5439 232° Southwest 490 564 32,800 1,169 Climbing Kansas City Center
Fri 03:59:01 AM 38.6381 -88.6656 232° Southwest 490 564 33,900 1,279 Climbing Kansas City Center
Fri 04:00:03 AM 38.5483 -88.8147 232° Southwest 485 558 35,400 1,041 Climbing Kansas City Center
Fri 04:01:02 AM 38.4678 -88.9467 232° Southwest 476 548 36,000 303 Climbing Kansas City Center
Fri 04:02:02 AM 38.3867 -89.0786 232° Southwest 474 545 36,000  Level Kansas City Center
Fri 04:03:05 AM 38.3161 -89.1969 233° Southwest 472 543 36,000  Level Kansas City Center
Fri 04:04:03 AM 38.2342 -89.3303 232° Southwest 475 547 36,000  Level Kansas City Center
Fri 04:05:03 AM 38.1525 -89.4631 232° Southwest 475 547 36,000  Level Kansas City Center
Fri 04:06:07 AM 38.0714 -89.5944 232° Southwest 475 547 36,000  Level Kansas City Center
Fri 04:07:05 AM 37.9744 -89.7494 232° Southwest 475 547 36,000  Level Kansas City Center
Fri 04:08:06 AM 37.8936 -89.8803 232° Southwest 475 547 36,000  Level Kansas City Center
Fri 04:09:07 AM 37.8244 -89.9908 232° Southwest 475 547 36,000  Level Kansas City Center
Fri 04:10:05 AM 37.7417 -90.1228 232° Southwest 475 547 36,000  Level Kansas City Center
Fri 04:11:06 AM 37.6578 -90.2547 231° Southwest 476 548 36,000  Level Kansas City Center
Fri 04:12:07 AM 37.5744 -90.3842 231° Southwest 477 549 36,000  Level Kansas City Center
Fri 04:13:09 AM 37.4919 -90.5153 232° Southwest 477 549 36,000  Level Kansas City Center
Fri 04:14:07 AM 37.4083 -90.6444 231° Southwest 477 549 36,000  Level Kansas City Center
Fri 04:15:09 AM 37.3153 -90.7883 231° Southwest 476 548 36,000  Level Kansas City Center
Fri 04:16:09 AM 37.2331 -90.9175 231° Southwest 475 547 36,000  Level Kansas City Center
Fri 04:17:10 AM 37.1481 -91.0467 230° Southwest 475 547 36,000  Level Kansas City Center
Fri 04:18:08 AM 37.0653 -91.1758 233° Southwest 475 547 36,000  Level Kansas City Center
Fri 04:19:10 AM 36.9811 -91.3033 230° Southwest 475 547 36,000  Level Kansas City Center
Fri 04:20:09 AM 36.8983 -91.4297 231° Southwest 473 544 36,000  Level Kansas City Center
Fri 04:21:12 AM 36.7861 -91.5267 215° Southwest 487 560 36,000 50 Level Kansas City Center
Fri 04:22:10 AM 36.6714 -91.6103 210° Southwest 482 555 36,100 50 Climbing Kansas City Center
Fri 04:23:13 AM 36.5653 -91.6894 211° Southwest 481 554 36,100 -48 Level Kansas City Center
Fri 04:24:14 AM 36.4511 -91.7747 211° Southwest 480 552 36,000 -50 Descending Kansas City Center
Fri 04:25:14 AM 36.3372 -91.8564 210° Southwest 479 551 36,000  Level Kansas City Center
Fri 04:26:23 AM 36.2319 -91.9994 228° Southwest 472 543 36,000 46 Level Memphis Center
Fri 04:27:24 AM 36.1517 -92.1294 233° Southwest 472 543 36,100 50 Climbing Memphis Center
Fri 04:28:24 AM 36.0711 -92.2597 233° Southwest 474 545 36,100  Level Memphis Center
Fri 04:29:25 AM 35.9906 -92.3906 233° Southwest 476 548 36,100 -50 Level Memphis Center
Fri 04:30:25 AM 35.9089 -92.5203 232° Southwest 476 548 36,000 -50 Descending Memphis Center
Fri 04:31:25 AM 35.8294 -92.6489 233° Southwest 476 548 36,000  Level Memphis Center
Fri 04:32:26 AM 35.7325 -92.8028 232° Southwest 476 548 36,000  Level Memphis Center
Fri 04:33:26 AM 35.6536 -92.9289 232° Southwest 475 547 36,000  Level Memphis Center
Fri 04:34:27 AM 35.5706 -93.0606 232° Southwest 475 547 36,000  Level Memphis Center
Fri 04:35:27 AM 35.4897 -93.1906 233° Southwest 476 548 36,000  Level Memphis Center
Fri 04:36:28 AM 35.4075 -93.3183 232° Southwest 476 548 36,000  Level Memphis Center
Fri 04:37:28 AM 35.3317 -93.4347 231° Southwest 477 549 36,000  Level Memphis Center
Fri 04:38:29 AM 35.2506 -93.5606 232° Southwest 476 548 36,000  Level Memphis Center
Fri 04:39:29 AM 35.1586 -93.7017 231° Southwest 476 548 36,000 50 Level Memphis Center
Fri 04:40:30 AM 35.0803 -93.8242 232° Southwest 476 548 36,100 50 Climbing Memphis Center
Fri 04:41:30 AM 34.9967 -93.9525 232° Southwest 478 550 36,100 -50 Level Memphis Center
Fri 04:42:31 AM 34.9142 -94.0775 231° Southwest 479 551 36,000 -50 Descending Memphis Center
Fri 04:43:31 AM 34.8317 -94.2050 232° Southwest 479 551 36,000  Level Memphis Center
Fri 04:44:32 AM 34.7489 -94.3303 231° Southwest 479 551 36,000  Level Memphis Center
Fri 04:45:33 AM 34.6658 -94.4567 231° Southwest 479 551 36,000  Level Memphis Center
Fri 04:46:04 AM 34.6167 -94.5322 232° Southwest 482 555 36,000  Level Fort Worth Center
Fri 04:47:05 AM 34.5336 -94.6567 231° Southwest 481 554 36,000  Level Fort Worth Center
Fri 04:48:05 AM 34.4517 -94.7808 231° Southwest 477 549 36,000  Level Fort Worth Center
Fri 04:49:06 AM 34.3675 -94.9047 231° Southwest 477 549 36,000 15 Level Fort Worth Center
Fri 04:54:42 AM 33.8859 -95.6162 231° Southwest 485 558 36,100 -236 Climbing FlightAware ADS-B
Fri 04:55:27 AM 33.8210 -95.7123 231° Southwest 484 557 34,500 -2,857 Descending FlightAware ADS-B
Fri 04:56:06 AM 33.7673 -95.7898 231° Southwest 490 564 32,100 -3,354 Descending FlightAware ADS-B
Fri 04:59:16 AM 33.5127 -96.1546 229° Southwest 446 513 21,700 -2,990 Descending FlightAware ADS-B
Fri 05:01:13 AM 33.3936 -96.3393 239° Southwest 375 432 16,800 -2,540 Descending FlightAware ADS-B
Fri 05:03:24 AM 33.2716 -96.5823 239° Southwest 321 369 11,200 -2,259 Descending FlightAware ADS-B
Fri 05:03:55 AM 33.2507 -96.6223 238° Southwest 307 353 10,700 -943 Descending FlightAware ADS-B
Fri 05:04:34 AM 33.2254 -96.6708 237° Southwest 298 343 10,100 -1,220 Descending FlightAware ADS-B
Fri 05:04:54 AM 33.2101 -96.6999 237° Southwest 296 341 9,500 -1,650 Descending FlightAware ADS-B
Fri 05:05:14 AM 33.1975 -96.7236 238° Southwest 294 338 9,000 -1,610 Descending FlightAware ADS-B
Fri 05:05:35 AM 33.1791 -96.7592 237° Southwest 289 333 8,400 -1,756 Descending FlightAware ADS-B
Fri 05:05:55 AM 33.1680 -96.7792 236° Southwest 289 333 7,800 -2,154 Descending FlightAware ADS-B
Fri 05:06:14 AM 33.1509 -96.8097 238° Southwest 281 323 7,000 -2,154 Descending FlightAware ADS-B
Fri 05:06:34 AM 33.1388 -96.8334 239° Southwest 277 319 6,400 -1,902 Descending FlightAware ADS-B
Fri 05:06:55 AM 33.1255 -96.8607 239° Southwest 272 313 5,700 -1,714 Descending FlightAware ADS-B
Fri 05:07:16 AM 33.1095 -96.8917 239° Southwest 250 288 5,200 -1,200 Descending FlightAware ADS-B
Fri 05:07:35 AM 33.0996 -96.9113 239° Southwest 236 272 4,900 -720 Descending FlightAware ADS-B
Fri 05:08:06 AM 33.0836 -96.9450 240° Southwest 202 232 4,600 -588 Descending FlightAware ADS-B
Fri 05:08:26 AM 33.0752 -96.9626 239° Southwest 185 213 4,400 -750 Descending FlightAware ADS-B
Fri 05:08:46 AM 33.0661 -96.9799 238° Southwest 165 190 4,100 -1,350 Descending FlightAware ADS-B
Fri 05:09:06 AM 33.0620 -96.9875 231° Southwest 155 178 3,500 -581 Descending FlightAware ADS-B
Fri 05:09:17 AM 33.0552 -96.9959 219° Southwest 152 175 3,800 632 Climbing FlightAware ADS-B
Fri 05:09:25 AM 33.0516 -96.9984 209° Southwest 144 166 3,700 -1,286 Descending FlightAware ADS-B
Fri 05:09:45 AM 33.0272 -97.0145 208° Southwest 135 155 3,200 -1,317 Descending FlightAware ADS-B
Fri 05:10:06 AM 33.0259 -97.0155 204° Southwest 132 152 2,800 -1,024 Descending FlightAware ADS-B
Fri 05:10:26 AM 33.0137 -97.0212 200° South 125 144 2,500 -615 Descending FlightAware ADS-B
Fri 05:10:45 AM 33.0084 -97.0233 199° South 123 142 2,400 -1,077 Descending FlightAware ADS-B
Fri 05:11:05 AM 33.0027 -97.0253 188° South 123 142 1,800 -400 Descending FlightAware ADS-B
Fri 05:11:15 AM 33.0005 -97.0255 178° South 124 143 2,200 194 Climbing FlightAware ADS-B
Fri 05:11:36 AM 32.9811 -97.0256 360° North 119 137 1,900 -585 Descending FlightAware ADS-B
Fri 05:11:56 AM 32.9757 -97.0256 180° South 121 139 1,800 -400 Descending FlightAware ADS-B
Fri 05:12:06 AM 32.9729 -97.0256 360° North 123 142 1,700 -286 Descending FlightAware ADS-B
Fri 05:12:17 AM 32.9707 -97.0257 180° South 124 143 1,700  Level FlightAware ADS-B
Fri 05:12:24 AM 32.9698 -97.0257 360° North 124 143 1,700 -1,200 Level FlightAware ADS-B
Fri 05:13:17 AM 32.9058 -97.0258 360° North 126 145 500 -1,358 Descending Fort Worth Center

Login

Don't have an account? Register now (free) for customized features, flight alerts, and more!